Time;durP1;ratioP1;P1;durP2;ratioP2;P2;SDS_P1;SDS_P2;PMS_P1;PMS_P2;Temp;Humidity;BMP_temperature;BMP_pressure;BME280_temperature;BME280_humidity;BME280_pressure;Samples;Min_cycle;Max_cycle;Signal;HPM_P1;HPM_P2
2021/01/05 00:00:36;;;;;;;52.08;28.30;;;;;;;0.83;88.05;101015.38;1825378;78;21507;-53
2021/01/05 00:03:04;;;;;;;58.68;28.15;;;;;;;0.74;88.02;101028.69;1825234;78;20964;-53
2021/01/05 00:05:31;;;;;;;54.63;28.05;;;;;;;0.67;88.18;101021.36;1825205;78;21008;-53
2021/01/05 00:07:59;;;;;;;48.10;24.47;;;;;;;0.66;88.08;101025.61;1825349;78;20976;-53
2021/01/05 00:10:26;;;;;;;52.35;24.72;;;;;;;0.61;87.93;101016.70;1825293;78;21184;-53
2021/01/05 00:12:54;;;;;;;63.92;30.95;;;;;;;0.56;87.99;101016.46;1825197;78;20941;-53
2021/01/05 00:15:23;;;;;;;53.85;30.70;;;;;;;0.53;88.10;101010.09;1824942;78;21483;-53
2021/01/05 00:17:51;;;;;;;62.23;31.25;;;;;;;0.51;87.96;101022.95;1825219;78;21696;-53
2021/01/05 00:20:22;;;;;;;66.67;29.57;;;;;;;0.47;88.13;101029.27;1825157;78;21008;-53
2021/01/05 00:22:49;;;;;;;50.48;25.35;;;;;;;0.45;88.25;101029.96;1825271;78;21185;-53
2021/01/05 00:25:19;;;;;;;59.83;31.48;;;;;;;0.48;88.45;101034.98;1825364;78;20941;-53
2021/01/05 00:27:47;;;;;;;62.78;32.17;;;;;;;0.53;88.51;101030.37;1825496;78;21008;-53
2021/01/05 00:30:22;;;;;;;64.20;28.45;;;;;;;0.58;88.47;101032.49;1825272;78;21535;-53
2021/01/05 00:32:52;;;;;;;71.42;31.33;;;;;;;0.60;88.42;101037.17;1825394;78;21036;-53
2021/01/05 00:35:24;;;;;;;65.72;31.52;;;;;;;0.57;88.12;101041.09;1825229;78;21467;-53
2021/01/05 00:37:52;;;;;;;73.28;36.05;;;;;;;0.49;87.86;101045.30;1823370;78;21036;-52
2021/01/05 00:40:22;;;;;;;60.20;30.70;;;;;;;0.43;88.09;101032.03;1820355;78;21012;-53
2021/01/05 00:42:49;;;;;;;69.32;33.02;;;;;;;0.50;88.41;101027.53;1820458;78;21597;-53
2021/01/05 00:45:30;;;;;;;60.90;31.07;;;;;;;0.55;88.23;101037.77;1820388;78;20933;-53
2021/01/05 00:47:59;;;;;;;63.63;31.85;;;;;;;0.55;87.94;101040.98;1820270;78;21349;-52
2021/01/05 00:50:27;;;;;;;58.55;30.20;;;;;;;0.46;87.44;101038.92;1820202;78;20989;-53
2021/01/05 00:52:54;;;;;;;59.95;32.70;;;;;;;0.37;87.32;101037.36;1820328;78;21028;-53
2021/01/05 00:55:22;;;;;;;73.07;37.80;;;;;;;0.29;87.38;101036.97;1820237;78;21032;-53
2021/01/05 00:57:50;;;;;;;69.53;30.68;;;;;;;0.27;87.62;101042.56;1820264;78;20992;-53
2021/01/05 01:00:26;;;;;;;73.85;38.70;;;;;;;0.29;87.76;101033.74;1820465;78;21351;-53
2021/01/05 01:02:56;;;;;;;59.15;31.50;;;;;;;0.28;87.78;101036.11;1819802;78;21008;-52
2021/01/05 01:05:25;;;;;;;67.72;33.67;;;;;;;0.32;87.97;101038.77;1820059;78;21527;-53
2021/01/05 01:07:53;;;;;;;63.73;33.73;;;;;;;0.37;87.95;101033.30;1820056;78;21039;-53
2021/01/05 01:10:22;;;;;;;53.05;28.83;;;;;;;0.40;87.89;101024.80;1820282;78;20980;-53
2021/01/05 01:12:51;;;;;;;59.65;28.40;;;;;;;0.37;87.75;101015.20;1820321;78;21268;-53
2021/01/05 01:15:18;;;;;;;55.83;29.02;;;;;;;0.37;87.88;101013.86;1820211;78;21008;-53
2021/01/05 01:17:46;;;;;;;52.98;28.07;;;;;;;0.38;87.68;101015.54;1820426;78;21555;-53
2021/01/05 01:20:16;;;;;;;66.28;34.85;;;;;;;0.34;87.76;101017.80;1820282;78;21056;-53
2021/01/05 01:22:45;;;;;;;42.48;24.67;;;;;;;0.32;87.84;101013.09;1820549;78;21589;-53
2021/01/05 01:25:13;;;;;;;53.70;28.98;;;;;;;0.31;87.86;101019.52;1793259;78;21206;-53
2021/01/05 01:27:42;;;;;;;58.65;33.98;;;;;;;0.29;87.79;101013.48;1820183;78;20980;-53
2021/01/05 01:30:12;;;;;;;56.33;30.30;;;;;;;0.29;87.67;101016.17;1820216;78;21005;-53
2021/01/05 01:32:41;;;;;;;60.85;34.70;;;;;;;0.27;87.76;101014.69;1818709;78;21963;-53
2021/01/05 01:35:11;;;;;;;50.78;28.10;;;;;;;0.25;87.62;101017.58;1820253;78;21058;-53
2021/01/05 01:37:40;;;;;;;55.43;30.72;;;;;;;0.24;87.79;101006.44;1792772;78;21363;-52
2021/01/05 01:40:10;;;;;;;50.92;30.85;;;;;;;0.27;87.74;101010.14;1820061;78;21102;-53
2021/01/05 01:42:38;;;;;;;60.10;35.13;;;;;;;0.25;87.61;101012.17;1820365;78;21019;-53
2021/01/05 01:45:07;;;;;;;59.67;30.82;;;;;;;0.23;87.66;101012.04;1820408;78;21004;-52
2021/01/05 01:47:41;;;;;;;56.63;30.30;;;;;;;0.26;87.78;101016.56;1820466;78;21547;-53
2021/01/05 01:50:18;;;;;;;56.85;32.73;;;;;;;0.24;87.45;101013.20;1820086;78;21209;-53
2021/01/05 01:53:22;;;;;;;59.80;33.95;;;;;;;0.15;87.21;101003.55;1792268;78;20985;-53
2021/01/05 01:56:44;;;;;;;60.20;32.38;;;;;;;0.09;87.40;101017.30;1819608;78;21035;-53
2021/01/05 01:59:40;;;;;;;64.37;33.75;;;;;;;0.11;87.48;101021.16;1820210;78;21016;-53
2021/01/05 02:02:12;;;;;;;59.03;32.05;;;;;;;0.11;87.63;101009.00;1813499;78;21020;-53
2021/01/05 02:05:03;;;;;;;60.10;32.85;;;;;;;0.18;87.87;101015.31;1820378;78;21187;-53
2021/01/05 02:08:01;;;;;;;61.35;32.48;;;;;;;0.24;87.88;101009.14;1819520;78;21958;-53
2021/01/05 02:11:03;;;;;;;66.20;34.73;;;;;;;0.24;87.78;101005.09;1820253;78;21016;-53
2021/01/05 02:14:04;;;;;;;64.60;31.87;;;;;;;0.25;87.85;101001.89;1819825;78;21032;-53
2021/01/05 02:16:57;;;;;;;53.17;29.02;;;;;;;0.30;88.03;101003.00;1820408;78;21629;-53
2021/01/05 02:19:39;;;;;;;58.80;32.28;;;;;;;0.36;87.90;100997.34;1820183;78;21169;-53
2021/01/05 02:22:22;;;;;;;45.67;24.35;;;;;;;0.36;87.86;100994.64;1820170;78;21000;-53
2021/01/05 02:25:17;;;;;;;58.02;30.85;;;;;;;0.37;87.75;100988.19;1820293;78;21032;-53
2021/01/05 02:27:53;;;;;;;48.13;26.93;;;;;;;0.31;87.58;100995.19;1820010;78;21000;-53
2021/01/05 02:30:26;;;;;;;57.80;30.70;;;;;;;0.32;87.66;100990.12;1820128;78;21040;-53
2021/01/05 02:33:42;;;;;;;49.27;28.42;;;;;;;0.34;87.60;100988.57;1820222;78;21125;-53
2021/01/05 02:36:23;;;;;;;51.18;26.42;;;;;;;0.34;87.56;100988.08;1820343;78;21004;-52
2021/01/05 02:39:36;;;;;;;55.98;28.70;;;;;;;0.35;87.44;100984.84;1846647;76;29071;-52
2021/01/05 02:42:29;;;;;;;56.15;30.62;;;;;;;0.29;87.37;100984.28;1773092;79;20970;-51
2021/01/05 02:45:39;;;;;;;58.28;30.70;;;;;;;0.28;87.40;100981.24;1816640;78;21435;-51
2021/01/05 02:48:55;;;;;;;56.40;26.52;;;;;;;0.25;87.32;100966.24;1816877;79;20982;-52
2021/01/05 02:52:07;;;;;;;47.38;25.65;;;;;;;0.15;87.16;100966.55;1816629;79;21017;-52
2021/01/05 02:55:04;;;;;;;45.12;25.23;;;;;;;-0.01;87.42;100958.17;1775600;79;21009;-52
2021/01/05 02:58:30;;;;;;;45.52;26.52;;;;;;;-0.05;87.80;100962.80;1816559;78;21005;-52
2021/01/05 03:02:03;;;;;;;42.03;23.80;;;;;;;-0.07;87.96;100955.39;1804263;79;21288;-52
2021/01/05 03:04:48;;;;;;;42.15;24.15;;;;;;;-0.12;88.24;100946.52;1784594;80;21006;-52
2021/01/05 03:07:35;;;;;;;41.15;23.42;;;;;;;-0.04;88.60;100941.00;1784764;80;21010;-52
2021/01/05 03:10:37;;;;;;;41.42;22.35;;;;;;;-0.01;88.40;100939.27;1748375;80;21002;-52
2021/01/05 03:13:54;;;;;;;36.70;22.15;;;;;;;0.01;88.50;100928.80;1784594;80;21068;-52
2021/01/05 03:16:44;;;;;;;36.17;22.63;;;;;;;0.05;88.69;100932.27;1785040;80;21857;-52
2021/01/05 03:19:44;;;;;;;36.33;21.20;;;;;;;0.14;88.70;100933.83;1784394;80;21608;-52
2021/01/05 03:22:33;;;;;;;31.42;18.52;;;;;;;0.18;88.67;100931.56;1784614;80;21001;-52
2021/01/05 03:25:20;;;;;;;33.20;20.80;;;;;;;0.18;88.37;100926.16;1784473;80;21576;-52
2021/01/05 03:28:07;;;;;;;;;;;;;;;0.15;88.12;100933.31;1787276;80;21579;-52
2021/01/05 03:31:18;;;;;;;33.60;18.17;;;;;;;0.12;88.20;100929.64;1784548;80;21604;-52
2021/01/05 03:34:04;;;;;;;31.00;18.75;;;;;;;0.11;88.18;100921.20;1784586;80;20978;-52
2021/01/05 03:36:50;;;;;;;28.35;16.95;;;;;;;0.08;88.33;100917.55;1784743;80;21026;-53
2021/01/05 03:39:37;;;;;;;24.98;15.80;;;;;;;0.13;88.43;100932.15;1784561;80;21029;-52
2021/01/05 03:42:23;;;;;;;31.40;18.05;;;;;;;0.20;88.46;100930.02;1784677;80;21037;-52
2021/01/05 03:45:17;;;;;;;32.13;19.23;;;;;;;0.23;88.26;100929.63;1784419;80;20993;-52
2021/01/05 03:48:06;;;;;;;28.12;16.75;;;;;;;0.23;88.21;100934.54;1760926;80;21025;-52
2021/01/05 03:50:52;;;;;;;39.08;19.10;;;;;;;0.18;88.03;100934.27;1783743;80;21017;-52
2021/01/05 03:53:38;;;;;;;28.98;16.40;;;;;;;0.11;87.99;100927.44;1784048;80;21045;-52
2021/01/05 03:56:24;;;;;;;33.83;19.87;;;;;;;0.10;88.22;100934.38;1784120;80;21044;-52
2021/01/05 03:59:10;;;;;;;29.77;18.67;;;;;;;0.10;88.43;100935.73;1784135;80;21794;-52
2021/01/05 04:01:55;;;;;;;25.43;16.53;;;;;;;0.13;88.45;100929.97;1783820;79;21021;-52
2021/01/05 04:04:23;;;;;;;27.20;17.48;;;;;;;0.17;88.58;100939.34;1783821;80;21040;-52
2021/01/05 04:06:50;;;;;;;31.05;19.48;;;;;;;0.20;88.60;100933.58;1783866;80;21615;-52
2021/01/05 04:09:18;;;;;;;33.30;20.82;;;;;;;0.25;88.60;100923.53;1783915;80;20950;-53
2021/01/05 04:11:45;;;;;;;27.42;16.60;;;;;;;0.29;88.59;100920.25;1783823;80;21236;-53
2021/01/05 04:14:14;;;;;;;31.52;19.52;;;;;;;0.33;88.49;100921.54;1783815;80;21124;-53
2021/01/05 04:16:41;;;;;;;25.68;16.52;;;;;;;0.36;88.36;100918.97;1783904;80;21449;-53
2021/01/05 04:19:08;;;;;;;29.82;18.65;;;;;;;0.37;88.07;100929.25;1713122;80;21648;-53
2021/01/05 04:21:36;;;;;;;25.85;17.20;;;;;;;0.32;87.82;100919.03;1783877;80;20994;-53
2021/01/05 04:24:05;;;;;;;30.80;19.02;;;;;;;0.27;87.82;100912.00;1783928;80;21595;-53
2021/01/05 04:26:34;;;;;;;27.27;17.48;;;;;;;0.22;87.73;100918.00;1783890;80;20986;-53
2021/01/05 04:29:02;;;;;;;30.52;17.50;;;;;;;0.16;87.77;100907.97;1783910;80;20978;-52
2021/01/05 04:31:36;;;;;;;27.87;18.27;;;;;;;0.14;88.00;100910.02;1783915;80;21025;-52
2021/01/05 04:34:04;;;;;;;31.75;18.15;;;;;;;0.12;88.16;100912.09;1783014;79;21568;-52
2021/01/05 04:36:32;;;;;;;27.45;16.55;;;;;;;0.14;88.26;100907.31;1784060;80;21359;-52
2021/01/05 04:38:59;;;;;;;30.32;18.00;;;;;;;0.14;88.33;100915.41;1793326;79;20965;-52
2021/01/05 04:41:27;;;;;;;26.25;15.55;;;;;;;0.12;88.07;100901.28;1798466;79;21005;-52
2021/01/05 04:43:58;;;;;;;28.07;17.75;;;;;;;0.12;88.22;100906.68;1798141;79;21005;-52
2021/01/05 04:46:37;;;;;;;28.90;18.35;;;;;;;0.16;88.41;100902.56;1798562;79;21584;-52
2021/01/05 04:49:59;;;;;;;30.30;19.20;;;;;;;0.20;88.34;100905.21;1798365;79;21531;-52
2021/01/05 04:52:45;;;;;;;29.23;18.25;;;;;;;0.21;88.33;100901.98;1798440;79;21041;-52
2021/01/05 04:55:23;;;;;;;;;;;;;;;0.19;88.29;100908.08;1801068;79;21028;-52
2021/01/05 04:57:55;;;;;;;28.52;17.27;;;;;;;0.12;88.18;100909.38;1798364;79;20182;-52
2021/01/05 05:00:26;;;;;;;31.15;17.65;;;;;;;0.09;88.33;100905.20;1798466;78;20997;-52
2021/01/05 05:03:05;;;;;;;31.55;19.23;;;;;;;0.13;88.46;100911.06;1798344;79;21364;-52
2021/01/05 05:05:54;;;;;;;30.40;18.20;;;;;;;0.19;88.46;100899.48;1846793;76;28205;-52
2021/01/05 05:08:30;;;;;;;23.95;14.95;;;;;;;0.14;88.42;100904.12;1816789;79;20970;-53
2021/01/05 05:11:00;;;;;;;;;;;;;;;0.16;88.44;100899.87;1819453;78;21022;-53
2021/01/05 05:13:50;;;;;;;30.82;17.80;;;;;;;0.18;88.47;100896.45;1816696;79;20140;-53
2021/01/05 05:16:45;;;;;;;26.25;16.12;;;;;;;0.23;88.41;100905.31;1816577;78;21438;-53
2021/01/05 05:19:33;;;;;;;30.40;18.75;;;;;;;0.25;88.41;100895.99;1816670;79;21013;-53
2021/01/05 05:22:22;;;;;;;37.28;20.75;;;;;;;0.28;88.33;100893.42;1816686;79;20958;-53
2021/01/05 05:25:02;;;;;;;35.43;20.80;;;;;;;0.32;88.30;100900.94;1816678;78;21138;-53
2021/01/05 05:27:52;;;;;;;40.17;21.82;;;;;;;0.37;88.24;100901.70;1787217;79;21591;-53
2021/01/05 05:30:34;;;;;;;32.50;18.60;;;;;;;0.38;88.07;100901.20;1788747;79;21002;-53
2021/01/05 05:33:05;;;;;;;32.45;18.27;;;;;;;0.36;88.11;100903.25;1816596;79;21604;-53
2021/01/05 05:36:07;;;;;;;40.40;21.25;;;;;;;0.37;88.25;100899.52;1816620;78;21010;-53
2021/01/05 05:39:08;;;;;;;43.20;22.52;;;;;;;0.43;88.43;100891.48;1816356;78;22123;-53
2021/01/05 05:42:11;;;;;;;52.03;24.47;;;;;;;0.49;88.23;100887.17;1816631;79;21030;-53
2021/01/05 05:44:53;;;;;;;43.78;21.42;;;;;;;0.45;88.13;100882.66;1816405;79;20997;-53
2021/01/05 05:47:32;;;;;;;50.52;23.00;;;;;;;0.45;88.28;100879.12;1816381;79;21552;-53
2021/01/05 05:50:42;;;;;;;54.63;24.75;;;;;;;0.45;88.28;100890.76;1816622;79;21738;-53
2021/01/05 05:53:25;;;;;;;49.50;25.10;;;;;;;0.49;88.41;100891.22;1816630;78;21280;-53
2021/01/05 05:56:15;;;;;;;41.60;21.90;;;;;;;0.48;88.15;100884.95;1816749;79;21477;-53
2021/01/05 05:58:52;;;;;;;58.28;28.17;;;;;;;0.48;88.17;100888.19;1816588;79;21065;-53
2021/01/05 06:01:25;;;;;;;52.75;27.55;;;;;;;0.49;88.21;100889.87;1802438;79;21037;-53
2021/01/05 06:03:54;;;;;;;40.63;22.60;;;;;;;0.51;88.24;100887.80;1786619;79;21108;-51
2021/01/05 06:06:22;;;;;;;43.65;20.70;;;;;;;0.49;87.74;100891.22;1772725;79;22204;-53
2021/01/05 06:08:49;;;;;;;30.23;18.87;;;;;;;0.45;87.73;100889.94;1772210;79;22007;-53
2021/01/05 06:11:16;;;;;;;30.52;18.95;;;;;;;0.43;87.72;100890.13;1799031;79;20996;-54
2021/01/05 06:13:44;;;;;;;34.48;22.00;;;;;;;0.46;87.91;100879.45;1798907;79;20998;-52
2021/01/05 06:16:11;;;;;;;36.58;23.15;;;;;;;0.53;87.94;100877.64;1798519;79;21001;-52
2021/01/05 06:18:38;;;;;;;35.43;20.32;;;;;;;0.58;87.97;100883.27;1798525;79;21036;-52
2021/01/05 06:21:07;;;;;;;40.88;24.35;;;;;;;0.66;88.09;100879.08;1798328;79;21008;-53
2021/01/05 06:23:36;;;;;;;53.25;28.52;;;;;;;0.70;87.79;100882.24;1798442;79;21021;-52
2021/01/05 06:26:03;;;;;;;46.10;26.02;;;;;;;0.67;87.51;100875.35;1779177;80;21006;-52
2021/01/05 06:28:31;;;;;;;48.20;23.90;;;;;;;0.67;87.51;100864.53;1779433;80;21041;-52
2021/01/05 06:30:58;;;;;;;38.35;20.37;;;;;;;0.66;87.37;100866.91;1779435;80;21598;-53
2021/01/05 06:33:27;;;;;;;29.87;19.00;;;;;;;0.66;87.10;100860.68;1779461;80;20982;-53
2021/01/05 06:35:54;;;;;;;32.65;20.40;;;;;;;0.60;87.00;100859.60;1779489;80;20982;-53
2021/01/05 06:38:21;;;;;;;36.05;21.65;;;;;;;0.60;86.99;100866.36;1779230;80;21057;-53
2021/01/05 06:40:49;;;;;;;35.17;21.45;;;;;;;0.59;86.97;100862.50;1779479;80;21049;-53
2021/01/05 06:43:16;;;;;;;32.40;20.57;;;;;;;0.57;87.01;100858.61;1779226;80;21284;-53
2021/01/05 06:45:44;;;;;;;33.23;19.75;;;;;;;0.52;87.06;100861.09;1779289;80;21045;-53
2021/01/05 06:48:11;;;;;;;44.40;22.27;;;;;;;0.47;87.21;100875.20;1779342;80;21041;-53
2021/01/05 06:50:39;;;;;;;37.53;22.27;;;;;;;0.48;87.40;100880.08;1779187;80;21017;-54
2021/01/05 06:53:06;;;;;;;36.65;20.20;;;;;;;0.46;87.31;100878.10;1779142;80;21005;-53
2021/01/05 06:55:37;;;;;;;32.75;18.60;;;;;;;0.41;87.28;100880.02;1779194;80;22781;-53
2021/01/05 06:58:06;;;;;;;32.78;18.67;;;;;;;0.36;87.39;100885.69;1779354;80;21006;-53
2021/01/05 07:00:33;;;;;;;36.85;21.10;;;;;;;0.34;87.46;100881.33;1778781;79;21101;-53
2021/01/05 07:03:01;;;;;;;39.30;22.15;;;;;;;0.33;87.36;100883.70;1779524;80;21647;-53
2021/01/05 07:05:28;;;;;;;51.53;25.95;;;;;;;0.33;87.60;100889.63;1779626;80;20970;-53
2021/01/05 07:07:56;;;;;;;40.10;23.55;;;;;;;0.36;87.68;100889.24;1779329;80;21362;-53
2021/01/05 07:10:24;;;;;;;56.75;29.60;;;;;;;0.38;87.74;100885.81;1769299;80;20958;-51
2021/01/05 07:12:51;;;;;;;51.18;31.87;;;;;;;0.39;87.76;100882.09;1758189;80;20995;-51
2021/01/05 07:15:19;;;;;;;41.77;24.85;;;;;;;0.48;87.99;100884.14;1767120;80;21046;-51
2021/01/05 07:17:46;;;;;;;43.45;24.92;;;;;;;0.47;87.62;100896.83;1769670;80;21063;-51
2021/01/05 07:20:15;;;;;;;32.15;20.50;;;;;;;0.44;87.67;100886.91;1766657;80;21196;-52
2021/01/05 07:22:42;;;;;;;39.05;22.80;;;;;;;0.46;87.89;100887.56;1763877;80;21049;-52
2021/01/05 07:25:12;;;;;;;40.65;22.10;;;;;;;0.49;87.99;100893.92;1774272;79;21180;-52
2021/01/05 07:27:39;;;;;;;47.88;25.27;;;;;;;0.52;87.73;100886.77;1752886;80;21518;-52
2021/01/05 07:30:08;;;;;;;38.67;21.85;;;;;;;0.50;87.72;100886.11;1755321;80;21339;-51
2021/01/05 07:32:36;;;;;;;37.85;22.22;;;;;;;0.48;87.61;100882.78;1759764;80;21382;-51
2021/01/05 07:35:05;;;;;;;32.73;22.77;;;;;;;0.44;87.65;100877.45;1749388;80;21070;-51
2021/01/05 07:37:37;;;;;;;36.17;21.17;;;;;;;0.43;87.66;100875.77;1753728;80;21093;-52
2021/01/05 07:40:06;;;;;;;35.98;21.60;;;;;;;0.45;87.74;100879.12;1751436;80;21003;-52
2021/01/05 07:42:34;;;;;;;39.65;22.10;;;;;;;0.47;87.82;100877.05;1769045;79;21070;-52
2021/01/05 07:45:08;;;;;;;47.08;26.68;;;;;;;0.49;87.84;100870.95;1752403;80;22251;-51
2021/01/05 07:47:38;;;;;;;65.45;38.05;;;;;;;0.51;87.82;100879.69;1762877;80;21691;-52
2021/01/05 07:50:08;;;;;;;53.87;27.00;;;;;;;0.57;87.79;100879.42;1756238;81;21042;-52
2021/01/05 07:52:38;;;;;;;40.55;23.05;;;;;;;0.62;87.66;100881.03;1750964;81;21034;-53
2021/01/05 07:55:12;;;;;;;45.92;25.02;;;;;;;0.63;87.52;100882.18;1756133;81;21056;-51
2021/01/05 07:57:40;;;;;;;43.28;23.52;;;;;;;0.63;87.38;100883.53;1757500;81;21302;-53
2021/01/05 08:00:12;;;;;;;52.58;27.27;;;;;;;0.62;87.25;100882.38;1759214;81;21157;-52
2021/01/05 08:02:39;;;;;;;54.30;27.82;;;;;;;0.60;87.13;100882.58;1760165;81;21538;-53
2021/01/05 08:05:10;;;;;;;50.30;27.25;;;;;;;0.63;87.38;100882.18;1754554;80;21095;-53
2021/01/05 08:07:38;;;;;;;44.90;25.27;;;;;;;0.67;87.24;100883.46;1738974;80;21043;-53
2021/01/05 08:10:07;;;;;;;55.10;30.25;;;;;;;0.69;87.23;100881.39;1732296;82;22575;-51
2021/01/05 08:12:35;;;;;;;55.25;30.70;;;;;;;0.73;87.20;100889.09;1735045;82;21088;-50
2021/01/05 08:15:04;;;;;;;63.20;36.33;;;;;;;0.77;87.09;100884.97;1729069;82;21066;-50
2021/01/05 08:17:32;;;;;;;42.88;26.00;;;;;;;0.76;86.90;100875.18;1736763;80;21087;-50
2021/01/05 08:20:00;;;;;;;68.28;37.55;;;;;;;0.80;87.00;100870.55;1724808;80;21053;-50
2021/01/05 08:22:27;;;;;;;48.92;29.37;;;;;;;0.85;86.84;100869.95;1772599;80;23067;-49
2021/01/05 08:24:55;;;;;;;69.67;35.65;;;;;;;0.83;86.50;100866.63;1769849;80;20998;-51
2021/01/05 08:27:22;;;;;;;107.45;52.78;;;;;;;0.78;86.32;100865.02;1774052;79;21570;-52
2021/01/05 08:29:50;;;;;;;40.50;24.70;;;;;;;0.74;86.48;100858.33;1777824;79;20951;-52
2021/01/05 08:32:17;;;;;;;42.25;26.35;;;;;;;0.71;86.43;100860.08;1779683;79;20930;-52
2021/01/05 08:34:45;;;;;;;38.13;24.85;;;;;;;0.66;86.46;100859.33;1776483;79;22775;-51
2021/01/05 08:37:13;;;;;;;41.88;24.00;;;;;;;0.61;86.54;100861.25;1776392;79;20974;-50
2021/01/05 08:39:42;;;;;;;38.78;25.75;;;;;;;0.58;86.85;100858.94;1777895;79;21064;-51
2021/01/05 08:42:09;;;;;;;42.17;26.37;;;;;;;0.58;86.79;100848.13;1748782;79;21656;-51
2021/01/05 08:44:36;;;;;;;39.60;22.42;;;;;;;0.58;86.95;100853.53;1773676;79;20964;-51
2021/01/05 08:47:04;;;;;;;47.05;27.85;;;;;;;0.59;86.89;100849.81;1778356;79;21198;-50
2021/01/05 08:49:32;;;;;;;37.17;24.57;;;;;;;0.57;87.00;100834.28;1766606;80;21011;-53
2021/01/05 08:51:59;;;;;;;43.42;26.40;;;;;;;0.62;87.08;100832.36;1777478;80;21021;-52
2021/01/05 08:54:27;;;;;;;40.12;26.62;;;;;;;0.61;86.93;100820.70;1770774;80;20967;-54
2021/01/05 08:56:59;;;;;;;42.65;27.25;;;;;;;0.63;87.02;100814.59;1765652;80;20976;-52
2021/01/05 08:59:27;;;;;;;42.58;24.92;;;;;;;0.67;87.11;100805.05;1776868;79;21341;-52
2021/01/05 09:01:54;;;;;;;44.13;26.62;;;;;;;0.68;86.94;100810.75;1778845;79;20962;-52
2021/01/05 09:04:22;;;;;;;39.48;25.62;;;;;;;0.73;86.98;100812.89;1777842;79;21022;-52
2021/01/05 09:06:49;;;;;;;42.60;27.32;;;;;;;0.77;86.97;100811.95;1782488;79;21513;-53
2021/01/05 09:09:17;;;;;;;41.90;25.52;;;;;;;0.79;86.71;100818.02;1780812;79;20972;-51
2021/01/05 09:11:48;;;;;;;41.70;23.75;;;;;;;0.78;86.70;100814.46;1767699;78;21363;-52
2021/01/05 09:14:15;;;;;;;40.03;22.70;;;;;;;0.77;86.19;100820.06;1744493;80;21076;-52
2021/01/05 09:16:43;;;;;;;37.85;23.70;;;;;;;0.76;86.39;100828.71;1750916;80;21073;-53
2021/01/05 09:19:10;;;;;;;43.60;28.12;;;;;;;0.80;86.49;100833.19;1776500;80;20990;-54
2021/01/05 09:21:42;;;;;;;38.05;25.17;;;;;;;0.80;86.05;100819.66;1772856;79;21119;-53
2021/01/05 09:24:09;;;;;;;36.05;21.90;;;;;;;0.76;85.84;100829.20;1774243;80;21360;-53
2021/01/05 09:26:37;;;;;;;37.73;23.83;;;;;;;0.71;85.83;100827.11;1771528;79;21086;-53
2021/01/05 09:29:07;;;;;;;38.73;23.40;;;;;;;0.66;85.85;100819.59;1771392;80;21051;-53
2021/01/05 09:31:47;;;;;;;41.50;26.00;;;;;;;0.63;85.98;100825.41;1780596;80;21595;-52
2021/01/05 09:34:17;;;;;;;36.93;24.57;;;;;;;0.69;86.24;100830.54;1770979;80;21062;-52
2021/01/05 09:36:45;;;;;;;34.90;22.13;;;;;;;0.72;86.27;100823.91;1765306;80;22320;-54
2021/01/05 09:39:16;;;;;;;33.08;21.45;;;;;;;0.74;86.11;100819.94;1764407;80;21617;-53
2021/01/05 09:41:50;;;;;;;37.95;24.65;;;;;;;0.75;86.03;100812.69;1783426;79;21033;-53
2021/01/05 09:44:18;;;;;;;44.48;27.17;;;;;;;0.77;86.11;100808.76;1789070;79;21536;-52
2021/01/05 09:46:51;;;;;;;36.50;24.60;;;;;;;0.88;86.29;100810.58;1786374;79;21150;-52
2021/01/05 09:49:18;;;;;;;33.25;21.75;;;;;;;0.93;86.01;100803.53;1779601;80;21255;-53
2021/01/05 09:51:48;;;;;;;30.97;21.10;;;;;;;0.98;85.76;100804.27;1779389;79;21073;-52
2021/01/05 09:54:17;;;;;;;33.48;22.67;;;;;;;0.99;85.57;100793.25;1776330;80;21378;-51
2021/01/05 09:56:51;;;;;;;32.67;21.82;;;;;;;0.98;84.88;100783.98;1781353;80;21634;-52
2021/01/05 09:59:20;;;;;;;34.43;20.92;;;;;;;0.94;84.90;100776.78;1782345;80;20986;-52
2021/01/05 10:01:48;;;;;;;36.23;22.60;;;;;;;0.91;84.99;100778.53;1774145;80;22840;-51
2021/01/05 10:04:16;;;;;;;31.70;20.37;;;;;;;0.84;84.87;100769.06;1780438;79;21006;-52
2021/01/05 10:06:43;;;;;;;34.03;21.87;;;;;;;0.81;85.08;100763.20;1777297;80;21059;-53
2021/01/05 10:09:12;;;;;;;33.92;23.30;;;;;;;0.84;85.34;100765.50;1741591;80;21047;-53
2021/01/05 10:11:45;;;;;;;48.23;26.65;;;;;;;0.86;85.35;100758.86;1772793;80;21624;-54
2021/01/05 10:14:15;;;;;;;37.88;22.85;;;;;;;0.94;85.43;100762.43;1778879;80;22035;-53
2021/01/05 10:16:43;;;;;;;42.95;21.77;;;;;;;1.02;85.33;100759.55;1774329;80;21072;-53
2021/01/05 10:19:14;;;;;;;47.88;26.82;;;;;;;1.07;85.17;100755.71;1774240;80;21417;-53
2021/01/05 10:21:42;;;;;;;39.27;25.65;;;;;;;1.09;85.20;100751.48;1738428;81;21082;-51
2021/01/05 10:24:12;;;;;;;41.63;23.95;;;;;;;1.13;85.41;100757.62;1747537;81;20976;-52
2021/01/05 10:26:40;;;;;;;44.13;23.40;;;;;;;1.21;85.27;100753.89;1734588;81;21567;-52
2021/01/05 10:29:09;;;;;;;36.58;21.33;;;;;;;1.19;84.93;100755.45;1723842;81;21053;-53
2021/01/05 10:31:42;;;;;;;49.33;22.65;;;;;;;1.18;84.96;100750.24;1686518;82;21177;-51
2021/01/05 10:34:13;;;;;;;47.53;23.92;;;;;;;1.20;84.95;100758.98;1730970;80;21065;-54
2021/01/05 10:36:46;;;;;;;46.10;25.40;;;;;;;1.21;84.87;100747.12;1709367;82;21059;-53
2021/01/05 10:39:14;;;;;;;40.05;22.65;;;;;;;1.21;84.80;100745.77;1730907;82;21829;-52
2021/01/05 10:41:44;;;;;;;41.23;21.70;;;;;;;1.20;84.83;100744.09;1726175;80;21667;-54
2021/01/05 10:44:14;;;;;;;41.88;23.25;;;;;;;1.18;84.86;100736.19;1721173;81;21190;-53
2021/01/05 10:46:41;;;;;;;40.60;23.25;;;;;;;1.21;84.95;100736.30;1778852;79;21094;-54
2021/01/05 10:49:09;;;;;;;38.70;20.77;;;;;;;1.18;84.79;100727.25;1778675;79;21071;-53
2021/01/05 10:51:46;;;;;;;44.23;22.87;;;;;;;1.17;84.98;100721.51;1780238;79;22351;-51
2021/01/05 10:54:15;;;;;;;42.23;24.87;;;;;;;1.21;85.13;100724.13;1773240;80;21672;-53
2021/01/05 10:56:45;;;;;;;42.00;24.82;;;;;;;1.24;84.90;100726.42;1777721;80;21620;-52
2021/01/05 10:59:13;;;;;;;39.95;22.37;;;;;;;1.20;84.83;100723.80;1782954;79;21172;-52
2021/01/05 11:01:41;;;;;;;53.05;30.88;;;;;;;1.19;84.92;100712.16;1775756;79;21764;-54
2021/01/05 11:04:08;;;;;;;42.27;23.47;;;;;;;1.21;85.10;100714.66;1774792;79;21090;-52
2021/01/05 11:06:37;;;;;;;52.95;27.80;;;;;;;1.26;85.08;100707.27;1787830;79;21663;-53
2021/01/05 11:09:05;;;;;;;47.60;25.32;;;;;;;1.29;85.23;100710.41;1732206;80;21072;-51
2021/01/05 11:11:33;;;;;;;53.70;28.15;;;;;;;1.34;85.05;100706.58;1747554;81;21772;-52
2021/01/05 11:14:01;;;;;;;46.65;23.07;;;;;;;1.37;85.11;100714.79;1748742;81;21039;-51
2021/01/05 11:16:29;;;;;;;59.48;31.80;;;;;;;1.42;85.12;100704.72;1749409;80;21374;-54
2021/01/05 11:18:58;;;;;;;54.15;30.08;;;;;;;1.44;85.06;100702.09;1730680;81;21090;-53
2021/01/05 11:21:26;;;;;;;54.98;31.00;;;;;;;1.42;84.95;100696.60;1728928;81;21064;-54
2021/01/05 11:23:53;;;;;;;50.43;29.35;;;;;;;1.39;85.00;100699.20;1724037;82;21076;-54
2021/01/05 11:26:21;;;;;;;53.70;30.37;;;;;;;1.38;85.03;100682.62;1724911;81;21072;-54
2021/01/05 11:28:51;;;;;;;54.60;29.65;;;;;;;1.38;85.10;100682.09;1722967;82;21434;-51
2021/01/05 11:31:18;;;;;;;59.08;32.35;;;;;;;1.38;85.02;100685.34;1776565;79;21061;-53
2021/01/05 11:33:46;;;;;;;69.58;36.30;;;;;;;1.37;85.15;100691.28;1739248;80;21033;-54
2021/01/05 11:36:24;;;;;;;76.50;34.08;;;;;;;1.38;85.23;100684.80;1731566;80;21057;-53
2021/01/05 11:38:52;;;;;;;60.58;33.50;;;;;;;1.37;85.30;100693.98;1736993;80;21129;-50
2021/01/05 11:41:34;;;;;;;56.77;29.72;;;;;;;1.35;85.34;100687.93;1732109;80;21355;-53
2021/01/05 11:44:01;;;;;;;70.22;38.92;;;;;;;1.36;85.46;100685.55;1722412;80;21085;-51
2021/01/05 11:46:29;;;;;;;70.80;37.90;;;;;;;1.41;85.49;100690.86;1724444;80;21053;-53
2021/01/05 11:48:58;;;;;;;67.27;38.42;;;;;;;1.41;85.51;100684.09;1728749;80;21035;-53
2021/01/05 11:51:35;;;;;;;77.40;37.05;;;;;;;1.43;85.43;100680.65;1732435;80;22285;-52